Impacts TAF Board INFO
IDs:

KMCI - Kansas City Intl, MO, US

Issued at 0520 UTC 04 Dec 2016
Updated at 0810 UTC 04 Dec 2016
Potential Impact None Slight Moderate High
Time0753Z 04/09Z 04/10Z 04/11Z 04/12Z 04/13Z 04/14Z 04/15Z 04/16Z 04/17Z 04/18Z 04/19Z 04/20Z 04/21Z
Type OBS PRVL PRVL PRVL PRVL PRVL PRVL PRVL PRVL PRVL PRVL PRVL PRVL PRVL
VIS 5 4 4 4 3 3 3 >6 >6 >6 >6 >6 >6 >6
CIG 14 6 6 6 3 3 3 7 7 7 15 -- -- --
Cover OVC OVC OVC OVC OVC OVC OVC OVC OVC OVC BKN SCT SCT SCT
FltCat MVFR IFR IFR IFR LIFR LIFR LIFR IFR IFR IFR MVFR VFR VFR VFR
WX RA BR RA RA RA -RA BR -RA BR -RA BR VCSH VCSH VCSH -- -- -- --
WDir 150 160 160 160 180 180 180 240 240 240 270 270 270 270
WSpd 6 5 5 5 5 5 5 6 6 6 8 8 8 8
WGst -- -- -- -- -- -- -- -- -- -- -- -- -- --

Raw TAF
KMCI 040520Z 0406/0506 18006KT P6SM -RA OVC025
  FM040900 16005KT 4SM RA OVC006
  FM041200 18005KT 3SM -RA BR OVC003
  FM041500 24006KT P6SM VCSH OVC007
  FM041800 27008KT P6SM BKN015
  FM041900 27008KT P6SM SCT050


Raw METAR
KMCI 040753Z 15006KT 5SM RA BR FEW008 BKN014 OVC027 04/03 A3006 RMK AO2 SLP182 P0006 T00440033
KMCI 040748Z 15006KT 5SM -RA BR FEW006 BKN016 OVC029 05/03 A3006 RMK AO2 P0005
KMCI 040653Z 17007KT 4SM -RA BR SCT008 BKN014 OVC026 05/03 A3008 RMK AO2 SLP190 P0006 T00500033
KMCI 040648Z 17005KT 4SM -RA BR FEW008 BKN017 OVC024 05/03 A3008 RMK AO2 P0006
KMCI 040631Z 17005KT 5SM -RA BR FEW009 BKN014 OVC029 05/03 A3009 RMK AO2 P0005 T00500033
KMCI 040553Z 18005KT 7SM -RA FEW017 BKN024 OVC038 05/03 A3010 RMK AO2 SLP196 P0002 60002 T00500028 10072 20050 400721022 56003
KMCI 040534Z 18005KT 8SM -RA SCT026 SCT031 OVC040 05/03 A3010 RMK AO2 P0001 T00500028

METAR Board
Radar Display
Forecast Discussion